Главная страница
METAR-TAF:

METAR-TAF

Аэропорты :

Савонлинна, Финляндия

широта: 61-57N, долгота: 028-57E, высота над уровнем моря: 95 м

Текущие метеонаблюдения

Эта сводка был подготовлена 33 минут назад, в 07:50 UTC
Штиль
Температура 4°C
Влажность 93%
Давление 1019 hPa
Видимость 10 км и более
Нет облачности ниже 1500 м, и нет кучево-дождевой облачности

METAR: EFSA 200750Z AUTO 00000KT CAVOK 04/03 Q1019

Время: 11:23 (08:23 UTC)

Прогноз

Эта сводка был подготовлена 14 часа и 47 минут назад, в 17:36 UTC
Прогноз действительный с 19-го 18 UTC до 19-го 21 UTC
Ветер 5 Узел от западный-юго-западный
Видимость 10 км и более
Отдельные облака на высоте 2000 фута

TAF: EFSA 191736Z 1918/1921 25005KT 9999 SCT020

Метеонаблюдения и прогнозы для более 4000 аэропортов (сводки METAR и TAF).

Имеющиеся станции представлены на карте желтыми и красными точками.

Чтобы увидеть название станции, наведите на нее мышь.

Затем щелкните, чтобы увидеть метеонаблюдения и метеопрогнозы.

Управление картой: чтобы увеличить масштаб, щелкните зеленые кнопки с черным крестиком; чтобы уменьшить масштаб, щелкните зеленую кнопку с тире; для просмотра соседних карт щелкайте зеленые стрелки.


METAR-TAF: